Freeman, Virginia
Current Conditions -  °F | °C
As of 5:55 PM on Thursday 23 Oct 2014 (Local Time) from KLVL Reporting Station
Clear Clear  
Wind Chill: 64°   Ceiling: Unl
Heat Index: 64°   Visibility: 10mi
Dew Point: 50°   Wind: 0mph
Humidity: 61%   Direction: NA
Pressure: 29.89"   Gusts: NA
Location:  36.78°N, 77.71°W
Report Text: KLVL 232155Z AUTO 00000KT 10SM CLR 18/10 A2989 RMK AO1 T01760100
Loading
Personal Weather Stations






























Interactive Weather Map
Tropical Storm Tracking
New forecast layout! Learn more

10-Day Weather Forecast

Advertisements
Track Severe Weather on mobile